SWA2626 KMCO-KPHL
Flight info
| Callsign | SWA2626 |
|---|---|
| Flight time | 2h 3m |
| Altitude | 39000 |
| Route | FATHE4 VIYAP Q87 JROSS Q135 RREGG Q117 SAWED Q97 ZJAAY JIIMS4 |
| Aircraft | B738/M-SADE2E3GIJ4RWZ/LB1D1 |
Departure
| Time | 2026-05-05 14:12 |
|---|---|
| Airport | Orlando International Airport (KMCO) |
Arrival
| Time | 2026-05-05 16:15 |
|---|---|
| Airport | Philadelphia International Airport (KPHL) |
| Time | Latitude | Longitude | Altitude | Speed | Heading |
|---|---|---|---|---|---|
| 2026-05-05 13:35 | 28.43600 | -81.30286 | 94 ft | 0 kts | 163° |
| 2026-05-05 13:59 | 28.43602 | -81.30286 | 94 ft | 2 kts | 163° |
| 2026-05-05 14:00 | 28.43651 | -81.30307 | 93 ft | 4 kts | 148° |
| 2026-05-05 14:00 | 28.43665 | -81.30319 | 93 ft | 4 kts | 125° |
| 2026-05-05 14:00 | 28.43670 | -81.30337 | 93 ft | 0 kts | 52° |
| 2026-05-05 14:02 | 28.43672 | -81.30333 | 93 ft | 2 kts | 52° |
| 2026-05-05 14:02 | 28.43696 | -81.30299 | 95 ft | 9 kts | 52° |
| 2026-05-05 14:03 | 28.43748 | -81.30225 | 94 ft | 14 kts | 51° |
| 2026-05-05 14:03 | 28.43811 | -81.30131 | 94 ft | 16 kts | 56° |
| 2026-05-05 14:03 | 28.43824 | -81.30006 | 94 ft | 17 kts | 92° |
| 2026-05-05 14:03 | 28.43830 | -81.29881 | 96 ft | 17 kts | 122° |
| 2026-05-05 14:04 | 28.43735 | -81.29816 | 93 ft | 16 kts | 166° |
| 2026-05-05 14:04 | 28.43626 | -81.29808 | 95 ft | 16 kts | 179° |
| 2026-05-05 14:04 | 28.43506 | -81.29806 | 96 ft | 19 kts | 179° |
| 2026-05-05 14:04 | 28.43360 | -81.29804 | 96 ft | 23 kts | 179° |
| 2026-05-05 14:05 | 28.43189 | -81.29802 | 95 ft | 26 kts | 179° |
| 2026-05-05 14:05 | 28.43009 | -81.29800 | 96 ft | 25 kts | 179° |
| 2026-05-05 14:05 | 28.42837 | -81.29799 | 96 ft | 24 kts | 180° |
| 2026-05-05 14:05 | 28.42677 | -81.29797 | 95 ft | 23 kts | 179° |
| 2026-05-05 14:06 | 28.42522 | -81.29795 | 95 ft | 22 kts | 180° |
| 2026-05-05 14:06 | 28.42364 | -81.29794 | 94 ft | 23 kts | 179° |
| 2026-05-05 14:06 | 28.42195 | -81.29792 | 94 ft | 25 kts | 180° |
| 2026-05-05 14:06 | 28.42016 | -81.29789 | 96 ft | 27 kts | 179° |
| 2026-05-05 14:07 | 28.41811 | -81.29790 | 93 ft | 31 kts | 180° |
| 2026-05-05 14:07 | 28.41581 | -81.29785 | 96 ft | 35 kts | 180° |
| 2026-05-05 14:07 | 28.41330 | -81.29783 | 94 ft | 37 kts | 179° |
| 2026-05-05 14:07 | 28.41064 | -81.29779 | 96 ft | 39 kts | 178° |
| 2026-05-05 14:08 | 28.40850 | -81.29770 | 94 ft | 19 kts | 155° |
| 2026-05-05 14:08 | 28.40817 | -81.29633 | 95 ft | 19 kts | 89° |
| 2026-05-05 14:08 | 28.40826 | -81.29561 | 93 ft | 3 kts | 37° |
| 2026-05-05 14:08 | 28.40851 | -81.29559 | 95 ft | 3 kts | 0° |
| 2026-05-05 14:10 | 28.40852 | -81.29559 | 92 ft | 1 kts | 0° |
| 2026-05-05 14:10 | 28.40988 | -81.29560 | 93 ft | 50 kts | 360° |
| 2026-05-05 14:11 | 28.41564 | -81.29566 | 97 ft | 113 kts | 359° |
| 2026-05-05 14:11 | 28.42539 | -81.29579 | 101 ft | 164 kts | 2° |
| 2026-05-05 14:11 | 28.43768 | -81.29601 | 362 ft | 188 kts | 3° |
| 2026-05-05 14:11 | 28.45136 | -81.29361 | 662 ft | 210 kts | 20° |
| 2026-05-05 14:12 | 28.46455 | -81.28636 | 1148 ft | 210 kts | 36° |
| 2026-05-05 14:12 | 28.47756 | -81.27708 | 1409 ft | 231 kts | 32° |
| 2026-05-05 14:12 | 28.49227 | -81.26753 | 1598 ft | 256 kts | 32° |
| 2026-05-05 14:12 | 28.50813 | -81.25734 | 2220 ft | 259 kts | 30° |
| 2026-05-05 14:13 | 28.52502 | -81.25184 | 3164 ft | 257 kts | 6° |
| 2026-05-05 14:13 | 28.54288 | -81.25077 | 3967 ft | 258 kts | 4° |
| 2026-05-05 14:13 | 28.56111 | -81.25066 | 4560 ft | 265 kts | 358° |
| 2026-05-05 14:13 | 28.57967 | -81.25163 | 5166 ft | 270 kts | 355° |
| 2026-05-05 14:14 | 28.59848 | -81.25395 | 5796 ft | 273 kts | 350° |
| 2026-05-05 14:14 | 28.61738 | -81.25713 | 6468 ft | 276 kts | 349° |
| 2026-05-05 14:14 | 28.63657 | -81.26038 | 7069 ft | 281 kts | 350° |
| 2026-05-05 14:14 | 28.65606 | -81.26322 | 7736 ft | 283 kts | 351° |
| 2026-05-05 14:15 | 28.67570 | -81.26592 | 8418 ft | 286 kts | 351° |
| 2026-05-05 14:15 | 28.69551 | -81.26859 | 9210 ft | 286 kts | 351° |
| 2026-05-05 14:15 | 28.71544 | -81.27129 | 9895 ft | 291 kts | 351° |
| 2026-05-05 14:15 | 28.73589 | -81.27407 | 10346 ft | 304 kts | 351° |
| 2026-05-05 14:16 | 28.75768 | -81.27705 | 10502 ft | 326 kts | 351° |
| 2026-05-05 14:16 | 28.78097 | -81.28025 | 10665 ft | 347 kts | 351° |
| 2026-05-05 14:16 | 28.80534 | -81.28358 | 10814 ft | 366 kts | 351° |
| 2026-05-05 14:16 | 28.83124 | -81.28712 | 10973 ft | 383 kts | 351° |
| 2026-05-05 14:17 | 28.85814 | -81.29046 | 11242 ft | 394 kts | 353° |
| 2026-05-05 14:17 | 28.88573 | -81.29283 | 11580 ft | 402 kts | 354° |
| 2026-05-05 14:17 | 28.91388 | -81.29490 | 11942 ft | 408 kts | 354° |
| 2026-05-05 14:17 | 28.94235 | -81.29709 | 12326 ft | 406 kts | 353° |
| 2026-05-05 14:18 | 28.96974 | -81.29931 | 12416 ft | 386 kts | 353° |
| 2026-05-05 14:18 | 28.99602 | -81.30158 | 12426 ft | 370 kts | 352° |
| 2026-05-05 14:18 | 29.02147 | -81.30431 | 12430 ft | 369 kts | 351° |
| 2026-05-05 14:18 | 29.04757 | -81.30737 | 12573 ft | 385 kts | 351° |
| 2026-05-05 14:19 | 29.07458 | -81.31051 | 12947 ft | 393 kts | 351° |
| 2026-05-05 14:19 | 29.10192 | -81.31358 | 13534 ft | 395 kts | 351° |
| 2026-05-05 14:19 | 29.12937 | -81.31613 | 14113 ft | 398 kts | 353° |
| 2026-05-05 14:19 | 29.15711 | -81.31788 | 14612 ft | 400 kts | 353° |
| 2026-05-05 14:20 | 29.18503 | -81.31936 | 15153 ft | 402 kts | 353° |
| 2026-05-05 14:20 | 29.21277 | -81.32079 | 15712 ft | 404 kts | 353° |
| 2026-05-05 14:20 | 29.24091 | -81.32230 | 16246 ft | 406 kts | 353° |
| 2026-05-05 14:20 | 29.26924 | -81.32390 | 16761 ft | 409 kts | 353° |
| 2026-05-05 14:21 | 29.29781 | -81.32557 | 17257 ft | 412 kts | 353° |
| 2026-05-05 14:21 | 29.32651 | -81.32727 | 17785 ft | 414 kts | 353° |
| 2026-05-05 14:21 | 29.35537 | -81.32900 | 18326 ft | 416 kts | 353° |
| 2026-05-05 14:21 | 29.38439 | -81.33075 | 18770 ft | 418 kts | 353° |
| 2026-05-05 14:22 | 29.41348 | -81.33251 | 19235 ft | 419 kts | 353° |
| 2026-05-05 14:22 | 29.44267 | -81.33426 | 19724 ft | 419 kts | 352° |
| 2026-05-05 14:22 | 29.47185 | -81.33602 | 20190 ft | 420 kts | 352° |
| 2026-05-05 14:22 | 29.50113 | -81.33779 | 20620 ft | 422 kts | 352° |
| 2026-05-05 14:23 | 29.53046 | -81.33957 | 21041 ft | 423 kts | 352° |
| 2026-05-05 14:23 | 29.54993 | -81.34074 | 21338 ft | 424 kts | 352° |
| 2026-05-05 14:23 | 29.57939 | -81.34252 | 21754 ft | 425 kts | 351° |
| 2026-05-05 14:23 | 29.60900 | -81.34431 | 22155 ft | 426 kts | 351° |
| 2026-05-05 14:24 | 29.64835 | -81.34669 | 22681 ft | 428 kts | 351° |
| 2026-05-05 14:24 | 29.67816 | -81.34842 | 23079 ft | 429 kts | 351° |
| 2026-05-05 14:24 | 29.69831 | -81.34958 | 23331 ft | 430 kts | 351° |
| 2026-05-05 14:24 | 29.72823 | -81.35129 | 23683 ft | 431 kts | 351° |
| 2026-05-05 14:25 | 29.75829 | -81.35300 | 23983 ft | 432 kts | 351° |
| 2026-05-05 14:25 | 29.78836 | -81.35471 | 24291 ft | 433 kts | 351° |
| 2026-05-05 14:25 | 29.81852 | -81.35643 | 24604 ft | 434 kts | 351° |
| 2026-05-05 14:25 | 29.84861 | -81.35815 | 24928 ft | 434 kts | 351° |
| 2026-05-05 14:26 | 29.87876 | -81.35987 | 25257 ft | 434 kts | 351° |
| 2026-05-05 14:26 | 29.90860 | -81.36158 | 25542 ft | 435 kts | 351° |
| 2026-05-05 14:26 | 29.93884 | -81.36332 | 25833 ft | 436 kts | 351° |
| 2026-05-05 14:26 | 29.96919 | -81.36507 | 26108 ft | 436 kts | 351° |
| 2026-05-05 14:27 | 29.99960 | -81.36683 | 26383 ft | 437 kts | 351° |
| 2026-05-05 14:27 | 30.02998 | -81.36858 | 26664 ft | 438 kts | 351° |
| 2026-05-05 14:27 | 30.06037 | -81.37032 | 27059 ft | 435 kts | 351° |
| 2026-05-05 14:27 | 30.09046 | -81.37204 | 27528 ft | 431 kts | 351° |
| 2026-05-05 14:28 | 30.12026 | -81.37374 | 28029 ft | 427 kts | 351° |
| 2026-05-05 14:28 | 30.14981 | -81.37542 | 28529 ft | 423 kts | 351° |
| 2026-05-05 14:28 | 30.17907 | -81.37711 | 29028 ft | 419 kts | 350° |
| 2026-05-05 14:28 | 30.20808 | -81.37880 | 29433 ft | 417 kts | 350° |
| 2026-05-05 14:29 | 30.23707 | -81.38050 | 29851 ft | 414 kts | 350° |
| 2026-05-05 14:29 | 30.26581 | -81.38216 | 30261 ft | 412 kts | 350° |
| 2026-05-05 14:29 | 30.29438 | -81.38382 | 30653 ft | 410 kts | 350° |
| 2026-05-05 14:29 | 30.32244 | -81.38545 | 31028 ft | 408 kts | 350° |
| 2026-05-05 14:30 | 30.35067 | -81.38708 | 31412 ft | 405 kts | 350° |
| 2026-05-05 14:30 | 30.37876 | -81.38872 | 31830 ft | 401 kts | 350° |
| 2026-05-05 14:30 | 30.40652 | -81.39030 | 32249 ft | 398 kts | 350° |
| 2026-05-05 14:30 | 30.43404 | -81.39189 | 32648 ft | 395 kts | 349° |
| 2026-05-05 14:31 | 30.46149 | -81.39349 | 32991 ft | 393 kts | 349° |
| 2026-05-05 14:31 | 30.48880 | -81.39500 | 33340 ft | 391 kts | 349° |
| 2026-05-05 14:31 | 30.51590 | -81.39645 | 33753 ft | 388 kts | 349° |
| 2026-05-05 14:31 | 30.54273 | -81.39784 | 34190 ft | 384 kts | 349° |
| 2026-05-05 14:32 | 30.56932 | -81.39924 | 34510 ft | 382 kts | 349° |
| 2026-05-05 14:32 | 30.59561 | -81.40065 | 34723 ft | 383 kts | 349° |
| 2026-05-05 14:32 | 30.62228 | -81.40210 | 34951 ft | 383 kts | 349° |
| 2026-05-05 14:32 | 30.64884 | -81.40353 | 35236 ft | 381 kts | 349° |
| 2026-05-05 14:33 | 30.67529 | -81.40495 | 35498 ft | 380 kts | 349° |
| 2026-05-05 14:33 | 30.70173 | -81.40636 | 35719 ft | 380 kts | 349° |
| 2026-05-05 14:33 | 30.72815 | -81.40778 | 35960 ft | 379 kts | 349° |
| 2026-05-05 14:33 | 30.75447 | -81.40919 | 36192 ft | 379 kts | 349° |
| 2026-05-05 14:34 | 30.78083 | -81.41060 | 36385 ft | 379 kts | 349° |
| 2026-05-05 14:34 | 30.80712 | -81.41200 | 36602 ft | 378 kts | 349° |
| 2026-05-05 14:34 | 30.83337 | -81.41342 | 36806 ft | 378 kts | 349° |
| 2026-05-05 14:34 | 30.85971 | -81.41483 | 37008 ft | 377 kts | 348° |
| 2026-05-05 14:35 | 30.88594 | -81.41625 | 37208 ft | 377 kts | 348° |
| 2026-05-05 14:35 | 30.91211 | -81.41765 | 37401 ft | 377 kts | 348° |
| 2026-05-05 14:35 | 30.93832 | -81.41907 | 37603 ft | 376 kts | 348° |
| 2026-05-05 14:35 | 30.96447 | -81.42047 | 37837 ft | 376 kts | 348° |
| 2026-05-05 14:36 | 30.99058 | -81.42188 | 38001 ft | 376 kts | 348° |
| 2026-05-05 14:36 | 31.01638 | -81.42327 | 38148 ft | 376 kts | 348° |
| 2026-05-05 14:36 | 31.04257 | -81.42467 | 38347 ft | 376 kts | 348° |
| 2026-05-05 14:36 | 31.06869 | -81.42608 | 38553 ft | 375 kts | 348° |
| 2026-05-05 14:37 | 31.09473 | -81.42748 | 38721 ft | 375 kts | 348° |
| 2026-05-05 14:37 | 31.12075 | -81.42889 | 38882 ft | 374 kts | 348° |
| 2026-05-05 14:37 | 31.14671 | -81.43029 | 39046 ft | 373 kts | 348° |
| 2026-05-05 14:37 | 31.17267 | -81.43170 | 39094 ft | 374 kts | 348° |
| 2026-05-05 14:38 | 31.22460 | -81.43450 | 39120 ft | 372 kts | 349° |
| 2026-05-05 14:38 | 31.25083 | -81.43268 | 39150 ft | 385 kts | 0° |
| 2026-05-05 14:38 | 31.27702 | -81.42362 | 39130 ft | 401 kts | 11° |
| 2026-05-05 14:39 | 31.32796 | -81.39604 | 39137 ft | 403 kts | 13° |
| 2026-05-05 14:39 | 31.37841 | -81.36784 | 39121 ft | 401 kts | 13° |
| 2026-05-05 14:40 | 31.42853 | -81.34027 | 39122 ft | 399 kts | 12° |
| 2026-05-05 14:40 | 31.47895 | -81.31281 | 39125 ft | 400 kts | 12° |
| 2026-05-05 14:41 | 31.52945 | -81.28532 | 39128 ft | 401 kts | 12° |
| 2026-05-05 14:41 | 31.58023 | -81.25765 | 39124 ft | 403 kts | 13° |
| 2026-05-05 14:42 | 31.63121 | -81.22980 | 39117 ft | 404 kts | 13° |
| 2026-05-05 14:42 | 31.68197 | -81.20206 | 39111 ft | 405 kts | 13° |
| 2026-05-05 14:43 | 31.73310 | -81.17407 | 39110 ft | 406 kts | 13° |
| 2026-05-05 14:43 | 31.78438 | -81.14599 | 39118 ft | 407 kts | 13° |
| 2026-05-05 14:44 | 31.83564 | -81.11787 | 39105 ft | 407 kts | 13° |
| 2026-05-05 14:44 | 31.88701 | -81.08965 | 39094 ft | 407 kts | 13° |
| 2026-05-05 14:45 | 31.93833 | -81.06143 | 39095 ft | 406 kts | 13° |
| 2026-05-05 14:45 | 31.98923 | -81.03340 | 39092 ft | 406 kts | 13° |
| 2026-05-05 14:46 | 32.04046 | -81.00498 | 39127 ft | 407 kts | 14° |
| 2026-05-05 14:46 | 32.09164 | -80.97634 | 39107 ft | 407 kts | 14° |
| 2026-05-05 14:47 | 32.14271 | -80.94769 | 39101 ft | 406 kts | 14° |
| 2026-05-05 14:47 | 32.19378 | -80.91903 | 39139 ft | 406 kts | 14° |
| 2026-05-05 14:48 | 32.24496 | -80.89032 | 39141 ft | 409 kts | 14° |
| 2026-05-05 14:48 | 32.29638 | -80.86147 | 39174 ft | 414 kts | 15° |
| 2026-05-05 14:49 | 32.34895 | -80.83191 | 39149 ft | 419 kts | 15° |
| 2026-05-05 14:49 | 32.40181 | -80.80210 | 39144 ft | 422 kts | 15° |
| 2026-05-05 14:50 | 32.45498 | -80.77208 | 39138 ft | 424 kts | 15° |
| 2026-05-05 14:50 | 32.50818 | -80.74199 | 39140 ft | 424 kts | 15° |
| 2026-05-05 14:51 | 32.56141 | -80.71187 | 39161 ft | 424 kts | 16° |
| 2026-05-05 14:51 | 32.61421 | -80.68194 | 39142 ft | 422 kts | 16° |
| 2026-05-05 14:52 | 32.66718 | -80.65188 | 39128 ft | 420 kts | 16° |
| 2026-05-05 14:52 | 32.71757 | -80.61524 | 39131 ft | 434 kts | 29° |
| 2026-05-05 14:53 | 32.73969 | -80.59016 | 39121 ft | 446 kts | 38° |
| 2026-05-05 14:53 | 32.76026 | -80.56244 | 39135 ft | 446 kts | 38° |
| 2026-05-05 14:53 | 32.80076 | -80.50664 | 39188 ft | 445 kts | 39° |
| 2026-05-05 14:54 | 32.84125 | -80.45108 | 39137 ft | 444 kts | 38° |
| 2026-05-05 14:54 | 32.88159 | -80.39613 | 39130 ft | 443 kts | 38° |
| 2026-05-05 14:55 | 32.92210 | -80.34110 | 39130 ft | 441 kts | 38° |
| 2026-05-05 14:55 | 32.96247 | -80.28623 | 39135 ft | 440 kts | 38° |
| 2026-05-05 14:56 | 33.00270 | -80.23142 | 39138 ft | 439 kts | 38° |
| 2026-05-05 14:56 | 33.04290 | -80.17658 | 39135 ft | 439 kts | 38° |
| 2026-05-05 14:57 | 33.08309 | -80.12172 | 39148 ft | 440 kts | 38° |
| 2026-05-05 14:57 | 33.12341 | -80.06652 | 39152 ft | 441 kts | 38° |
| 2026-05-05 14:58 | 33.16381 | -80.01114 | 39153 ft | 443 kts | 38° |
| 2026-05-05 14:58 | 33.20402 | -79.95589 | 39148 ft | 444 kts | 38° |
| 2026-05-05 14:59 | 33.24454 | -79.90017 | 39146 ft | 444 kts | 38° |
| 2026-05-05 14:59 | 33.28510 | -79.84431 | 39160 ft | 445 kts | 38° |
| 2026-05-05 15:00 | 33.31886 | -79.79772 | 39147 ft | 445 kts | 38° |
| 2026-05-05 15:00 | 33.36610 | -79.73244 | 39148 ft | 443 kts | 38° |
| 2026-05-05 15:01 | 33.40641 | -79.67668 | 39136 ft | 442 kts | 38° |
| 2026-05-05 15:01 | 33.44634 | -79.62135 | 39146 ft | 440 kts | 38° |
| 2026-05-05 15:02 | 33.48623 | -79.56599 | 39143 ft | 438 kts | 38° |
| 2026-05-05 15:02 | 33.52597 | -79.51074 | 39165 ft | 437 kts | 38° |
| 2026-05-05 15:03 | 33.56561 | -79.45555 | 39153 ft | 436 kts | 38° |
| 2026-05-05 15:03 | 33.60518 | -79.40040 | 39154 ft | 436 kts | 39° |
| 2026-05-05 15:04 | 33.64495 | -79.34490 | 39145 ft | 441 kts | 39° |
| 2026-05-05 15:04 | 33.68515 | -79.28870 | 39153 ft | 446 kts | 39° |
| 2026-05-05 15:05 | 33.74583 | -79.20372 | 39197 ft | 450 kts | 39° |
| 2026-05-05 15:06 | 33.78649 | -79.14663 | 39161 ft | 446 kts | 39° |
| 2026-05-05 15:06 | 33.82639 | -79.09040 | 39153 ft | 439 kts | 39° |
| 2026-05-05 15:07 | 33.86613 | -79.03451 | 39161 ft | 442 kts | 40° |
| 2026-05-05 15:07 | 33.90632 | -78.97795 | 39165 ft | 447 kts | 40° |
| 2026-05-05 15:08 | 33.94691 | -78.92067 | 39161 ft | 452 kts | 40° |
| 2026-05-05 15:08 | 33.98790 | -78.86265 | 39166 ft | 456 kts | 40° |
| 2026-05-05 15:09 | 34.02886 | -78.80457 | 39153 ft | 458 kts | 40° |
| 2026-05-05 15:09 | 34.06983 | -78.74631 | 39149 ft | 452 kts | 40° |
| 2026-05-05 15:10 | 34.11021 | -78.68885 | 39167 ft | 447 kts | 40° |
| 2026-05-05 15:10 | 34.15057 | -78.63146 | 39188 ft | 450 kts | 41° |
| 2026-05-05 15:11 | 34.19142 | -78.57324 | 39183 ft | 457 kts | 41° |
| 2026-05-05 15:11 | 34.23264 | -78.51434 | 39172 ft | 461 kts | 42° |
| 2026-05-05 15:12 | 34.27651 | -78.45828 | 39164 ft | 455 kts | 34° |
| 2026-05-05 15:12 | 34.31617 | -78.41655 | 39147 ft | 453 kts | 32° |
| 2026-05-05 15:13 | 34.37164 | -78.35878 | 39139 ft | 446 kts | 33° |
| 2026-05-05 15:13 | 34.41038 | -78.31773 | 39132 ft | 444 kts | 33° |
| 2026-05-05 15:14 | 34.45661 | -78.26830 | 39143 ft | 442 kts | 33° |
| 2026-05-05 15:14 | 34.50265 | -78.21888 | 39143 ft | 442 kts | 33° |
| 2026-05-05 15:15 | 34.54873 | -78.16933 | 39153 ft | 442 kts | 33° |
| 2026-05-05 15:15 | 34.59450 | -78.12003 | 39154 ft | 443 kts | 33° |
| 2026-05-05 15:16 | 34.64072 | -78.07020 | 39161 ft | 445 kts | 34° |
| 2026-05-05 15:16 | 34.68719 | -78.02002 | 39169 ft | 448 kts | 34° |
| 2026-05-05 15:17 | 34.73381 | -77.96959 | 39158 ft | 450 kts | 34° |
| 2026-05-05 15:17 | 34.78062 | -77.91887 | 39159 ft | 452 kts | 34° |
| 2026-05-05 15:18 | 34.82768 | -77.86778 | 39164 ft | 454 kts | 34° |
| 2026-05-05 15:18 | 34.87499 | -77.81644 | 39161 ft | 456 kts | 34° |
| 2026-05-05 15:19 | 34.92331 | -77.76627 | 39169 ft | 457 kts | 33° |
| 2026-05-05 15:19 | 34.97207 | -77.71631 | 39168 ft | 458 kts | 33° |
| 2026-05-05 15:20 | 35.02051 | -77.66624 | 39160 ft | 459 kts | 33° |
| 2026-05-05 15:20 | 35.06919 | -77.61566 | 39156 ft | 459 kts | 33° |
| 2026-05-05 15:21 | 35.11782 | -77.56508 | 39165 ft | 459 kts | 34° |
| 2026-05-05 15:21 | 35.16856 | -77.51871 | 39162 ft | 451 kts | 26° |
| 2026-05-05 15:22 | 35.22207 | -77.47957 | 39149 ft | 450 kts | 24° |
| 2026-05-05 15:22 | 35.27594 | -77.44049 | 39154 ft | 450 kts | 25° |
| 2026-05-05 15:23 | 35.32954 | -77.40076 | 39155 ft | 451 kts | 25° |
| 2026-05-05 15:23 | 35.38310 | -77.36061 | 39153 ft | 451 kts | 25° |
| 2026-05-05 15:24 | 35.43670 | -77.32031 | 39140 ft | 451 kts | 25° |
| 2026-05-05 15:24 | 35.49030 | -77.27998 | 39141 ft | 452 kts | 25° |
| 2026-05-05 15:25 | 35.54389 | -77.23960 | 39140 ft | 452 kts | 25° |
| 2026-05-05 15:25 | 35.59758 | -77.19908 | 39155 ft | 454 kts | 26° |
| 2026-05-05 15:26 | 35.65106 | -77.15865 | 39155 ft | 454 kts | 26° |
| 2026-05-05 15:26 | 35.70487 | -77.11793 | 39150 ft | 454 kts | 26° |
| 2026-05-05 15:27 | 35.75868 | -77.07709 | 39144 ft | 454 kts | 26° |
| 2026-05-05 15:27 | 35.81247 | -77.03617 | 39144 ft | 455 kts | 26° |
| 2026-05-05 15:28 | 35.86639 | -76.99510 | 39137 ft | 455 kts | 26° |
| 2026-05-05 15:28 | 35.92024 | -76.95421 | 39134 ft | 454 kts | 25° |
| 2026-05-05 15:29 | 35.97540 | -76.91653 | 39134 ft | 452 kts | 22° |
| 2026-05-05 15:29 | 36.03090 | -76.88039 | 39143 ft | 451 kts | 22° |
| 2026-05-05 15:30 | 36.08637 | -76.84397 | 39142 ft | 452 kts | 23° |
| 2026-05-05 15:30 | 36.14178 | -76.80717 | 39134 ft | 451 kts | 23° |
| 2026-05-05 15:31 | 36.19676 | -76.77043 | 39136 ft | 452 kts | 23° |
| 2026-05-05 15:31 | 36.25205 | -76.73341 | 39132 ft | 452 kts | 23° |
| 2026-05-05 15:32 | 36.30735 | -76.69633 | 39122 ft | 452 kts | 24° |
| 2026-05-05 15:32 | 36.36270 | -76.65917 | 39110 ft | 452 kts | 24° |
| 2026-05-05 15:33 | 36.41795 | -76.62201 | 39110 ft | 451 kts | 24° |
| 2026-05-05 15:33 | 36.47321 | -76.58476 | 39107 ft | 451 kts | 24° |
| 2026-05-05 15:34 | 36.52806 | -76.54775 | 39106 ft | 451 kts | 24° |
| 2026-05-05 15:34 | 36.58328 | -76.51044 | 39110 ft | 451 kts | 24° |
| 2026-05-05 15:35 | 36.63846 | -76.47309 | 39103 ft | 451 kts | 24° |
| 2026-05-05 15:35 | 36.69358 | -76.43570 | 39107 ft | 451 kts | 24° |
| 2026-05-05 15:36 | 36.74841 | -76.39847 | 39108 ft | 452 kts | 24° |
| 2026-05-05 15:36 | 36.80375 | -76.36084 | 39106 ft | 453 kts | 24° |
| 2026-05-05 15:37 | 36.85926 | -76.32300 | 39139 ft | 455 kts | 24° |
| 2026-05-05 15:37 | 36.91486 | -76.28505 | 39141 ft | 456 kts | 24° |
| 2026-05-05 15:38 | 36.97057 | -76.24695 | 39145 ft | 457 kts | 25° |
| 2026-05-05 15:38 | 37.02639 | -76.20871 | 39134 ft | 457 kts | 25° |
| 2026-05-05 15:39 | 37.08223 | -76.17040 | 39066 ft | 458 kts | 25° |
| 2026-05-05 15:39 | 37.13809 | -76.13201 | 39080 ft | 457 kts | 25° |
| 2026-05-05 15:40 | 37.19389 | -76.09359 | 39068 ft | 458 kts | 25° |
| 2026-05-05 15:40 | 37.24943 | -76.05529 | 39078 ft | 458 kts | 25° |
| 2026-05-05 15:41 | 37.30530 | -76.01671 | 39073 ft | 458 kts | 25° |
| 2026-05-05 15:41 | 37.36124 | -75.97800 | 39084 ft | 458 kts | 25° |
| 2026-05-05 15:42 | 37.41717 | -75.93923 | 39062 ft | 459 kts | 25° |
| 2026-05-05 15:42 | 37.47281 | -75.90059 | 39067 ft | 459 kts | 25° |
| 2026-05-05 15:43 | 37.52873 | -75.86170 | 39063 ft | 459 kts | 25° |
| 2026-05-05 15:43 | 37.58406 | -75.82130 | 39062 ft | 460 kts | 27° |
| 2026-05-05 15:44 | 37.63889 | -75.77957 | 39075 ft | 461 kts | 27° |
| 2026-05-05 15:44 | 37.69399 | -75.73781 | 39067 ft | 462 kts | 27° |
| 2026-05-05 15:45 | 37.74918 | -75.69617 | 39070 ft | 462 kts | 27° |
| 2026-05-05 15:45 | 37.80454 | -75.65437 | 39060 ft | 463 kts | 27° |
| 2026-05-05 15:46 | 37.85952 | -75.61192 | 39054 ft | 465 kts | 30° |
| 2026-05-05 15:46 | 37.91297 | -75.56550 | 39058 ft | 466 kts | 31° |
| 2026-05-05 15:47 | 37.96619 | -75.51854 | 39050 ft | 467 kts | 31° |
| 2026-05-05 15:47 | 38.01944 | -75.47218 | 39045 ft | 467 kts | 31° |
| 2026-05-05 15:48 | 38.07400 | -75.42770 | 39026 ft | 463 kts | 22° |
| 2026-05-05 15:48 | 38.13253 | -75.39390 | 39029 ft | 461 kts | 19° |
| 2026-05-05 15:49 | 38.19152 | -75.36129 | 39025 ft | 462 kts | 20° |
| 2026-05-05 15:49 | 38.25022 | -75.32754 | 38940 ft | 465 kts | 21° |
| 2026-05-05 15:49 | 38.27986 | -75.31019 | 38380 ft | 471 kts | 21° |
| 2026-05-05 15:50 | 38.30950 | -75.29271 | 37809 ft | 467 kts | 21° |
| 2026-05-05 15:50 | 38.33859 | -75.27550 | 37254 ft | 465 kts | 21° |
| 2026-05-05 15:50 | 38.36793 | -75.25815 | 36659 ft | 464 kts | 21° |
| 2026-05-05 15:50 | 38.39720 | -75.24085 | 36083 ft | 463 kts | 21° |
| 2026-05-05 15:51 | 38.42647 | -75.22355 | 35471 ft | 463 kts | 21° |
| 2026-05-05 15:51 | 38.45572 | -75.20626 | 34839 ft | 464 kts | 21° |
| 2026-05-05 15:51 | 38.48502 | -75.18892 | 34195 ft | 465 kts | 21° |
| 2026-05-05 15:51 | 38.51442 | -75.17150 | 33458 ft | 466 kts | 21° |
| 2026-05-05 15:52 | 38.54391 | -75.15401 | 32710 ft | 467 kts | 21° |
| 2026-05-05 15:52 | 38.57345 | -75.13649 | 31983 ft | 468 kts | 22° |
| 2026-05-05 15:52 | 38.60277 | -75.11836 | 31251 ft | 470 kts | 24° |
| 2026-05-05 15:52 | 38.63202 | -75.09945 | 30507 ft | 472 kts | 24° |
| 2026-05-05 15:53 | 38.66134 | -75.08039 | 29644 ft | 474 kts | 24° |
| 2026-05-05 15:53 | 38.69096 | -75.06127 | 28691 ft | 477 kts | 24° |
| 2026-05-05 15:53 | 38.72061 | -75.04224 | 27801 ft | 477 kts | 24° |
| 2026-05-05 15:53 | 38.75036 | -75.02317 | 26891 ft | 479 kts | 24° |
| 2026-05-05 15:54 | 38.78028 | -75.00397 | 26008 ft | 481 kts | 24° |
| 2026-05-05 15:54 | 38.81013 | -74.98479 | 25282 ft | 477 kts | 24° |
| 2026-05-05 15:54 | 38.83966 | -74.96580 | 24645 ft | 473 kts | 24° |
| 2026-05-05 15:54 | 38.86901 | -74.94688 | 23971 ft | 470 kts | 24° |
| 2026-05-05 15:55 | 38.89773 | -74.92835 | 23269 ft | 466 kts | 24° |
| 2026-05-05 15:55 | 38.92640 | -74.90983 | 22475 ft | 456 kts | 24° |
| 2026-05-05 15:55 | 38.95453 | -74.89163 | 21396 ft | 449 kts | 24° |
| 2026-05-05 15:55 | 38.98241 | -74.87360 | 20240 ft | 445 kts | 23° |
| 2026-05-05 15:56 | 39.00998 | -74.85578 | 19179 ft | 441 kts | 22° |
| 2026-05-05 15:56 | 39.03721 | -74.83814 | 18197 ft | 435 kts | 22° |
| 2026-05-05 15:56 | 39.06420 | -74.82071 | 17096 ft | 429 kts | 21° |
| 2026-05-05 15:56 | 39.09173 | -74.80936 | 15993 ft | 415 kts | 2° |
| 2026-05-05 15:57 | 39.11986 | -74.80953 | 15172 ft | 396 kts | 345° |
| 2026-05-05 15:57 | 39.14571 | -74.81768 | 14841 ft | 370 kts | 338° |
| 2026-05-05 15:57 | 39.16969 | -74.82692 | 14633 ft | 350 kts | 337° |
| 2026-05-05 15:57 | 39.19266 | -74.83594 | 14163 ft | 340 kts | 336° |
| 2026-05-05 15:58 | 39.21495 | -74.84463 | 13871 ft | 327 kts | 336° |
| 2026-05-05 15:58 | 39.23626 | -74.85284 | 13583 ft | 314 kts | 336° |
| 2026-05-05 15:58 | 39.25001 | -74.85810 | 13346 ft | 308 kts | 336° |
| 2026-05-05 15:58 | 39.27028 | -74.86583 | 13025 ft | 299 kts | 336° |
| 2026-05-05 15:59 | 39.28993 | -74.87330 | 12693 ft | 291 kts | 336° |
| 2026-05-05 15:59 | 39.30932 | -74.88067 | 12256 ft | 289 kts | 335° |
| 2026-05-05 15:59 | 39.32858 | -74.88798 | 11749 ft | 288 kts | 336° |
| 2026-05-05 15:59 | 39.34785 | -74.89529 | 11251 ft | 288 kts | 336° |
| 2026-05-05 16:00 | 39.36673 | -74.90239 | 11091 ft | 275 kts | 335° |
| 2026-05-05 16:00 | 39.38476 | -74.90917 | 11017 ft | 269 kts | 335° |
| 2026-05-05 16:00 | 39.40268 | -74.91597 | 10979 ft | 267 kts | 335° |
| 2026-05-05 16:00 | 39.42022 | -74.92257 | 10895 ft | 257 kts | 335° |
| 2026-05-05 16:01 | 39.43723 | -74.92903 | 10681 ft | 254 kts | 335° |
| 2026-05-05 16:01 | 39.45419 | -74.93547 | 10438 ft | 253 kts | 335° |
| 2026-05-05 16:01 | 39.47110 | -74.94188 | 10182 ft | 253 kts | 335° |
| 2026-05-05 16:01 | 39.48779 | -74.94821 | 9953 ft | 253 kts | 335° |
| 2026-05-05 16:02 | 39.50463 | -74.95459 | 9729 ft | 252 kts | 334° |
| 2026-05-05 16:02 | 39.52148 | -74.96099 | 9457 ft | 252 kts | 334° |
| 2026-05-05 16:02 | 39.53816 | -74.96775 | 9223 ft | 247 kts | 327° |
| 2026-05-05 16:02 | 39.55221 | -74.97929 | 8987 ft | 236 kts | 314° |
| 2026-05-05 16:03 | 39.56533 | -74.99201 | 8714 ft | 237 kts | 314° |
| 2026-05-05 16:03 | 39.57912 | -75.00532 | 8041 ft | 259 kts | 316° |
| 2026-05-05 16:03 | 39.59411 | -75.01960 | 7577 ft | 275 kts | 317° |
| 2026-05-05 16:03 | 39.60985 | -75.03438 | 7083 ft | 282 kts | 318° |
| 2026-05-05 16:04 | 39.62594 | -75.04941 | 6597 ft | 287 kts | 318° |
| 2026-05-05 16:04 | 39.64231 | -75.06466 | 6128 ft | 292 kts | 319° |
| 2026-05-05 16:04 | 39.65896 | -75.08005 | 5678 ft | 296 kts | 323° |
| 2026-05-05 16:04 | 39.67835 | -75.08945 | 5393 ft | 303 kts | 351° |
| 2026-05-05 16:05 | 39.69908 | -75.08873 | 5325 ft | 295 kts | 3° |
| 2026-05-05 16:05 | 39.71904 | -75.08497 | 5239 ft | 287 kts | 12° |
| 2026-05-05 16:05 | 39.73647 | -75.07301 | 4972 ft | 290 kts | 39° |
| 2026-05-05 16:05 | 39.75046 | -75.05436 | 4756 ft | 287 kts | 47° |
| 2026-05-05 16:06 | 39.76384 | -75.03493 | 4414 ft | 289 kts | 47° |
| 2026-05-05 16:06 | 39.77717 | -75.01547 | 4133 ft | 288 kts | 47° |
| 2026-05-05 16:06 | 39.79053 | -74.99615 | 3865 ft | 286 kts | 47° |
| 2026-05-05 16:06 | 39.80390 | -74.97700 | 3556 ft | 287 kts | 46° |
| 2026-05-05 16:07 | 39.81725 | -74.95793 | 3386 ft | 283 kts | 46° |
| 2026-05-05 16:07 | 39.83038 | -74.93898 | 3179 ft | 284 kts | 50° |
| 2026-05-05 16:07 | 39.83940 | -74.91630 | 2882 ft | 283 kts | 76° |
| 2026-05-05 16:07 | 39.84400 | -74.89175 | 2635 ft | 279 kts | 77° |
| 2026-05-05 16:08 | 39.84878 | -74.86710 | 2331 ft | 281 kts | 77° |
| 2026-05-05 16:08 | 39.85527 | -74.84341 | 2136 ft | 278 kts | 59° |
| 2026-05-05 16:08 | 39.86789 | -74.82416 | 2110 ft | 285 kts | 36° |
| 2026-05-05 16:08 | 39.88507 | -74.81204 | 2102 ft | 279 kts | 15° |
| 2026-05-05 16:09 | 39.90403 | -74.80879 | 2093 ft | 274 kts | 353° |
| 2026-05-05 16:09 | 39.92214 | -74.81470 | 2092 ft | 266 kts | 330° |
| 2026-05-05 16:09 | 39.93670 | -74.82873 | 2073 ft | 259 kts | 305° |
| 2026-05-05 16:09 | 39.94309 | -74.84966 | 2103 ft | 248 kts | 270° |
| 2026-05-05 16:10 | 39.94200 | -74.87188 | 2096 ft | 250 kts | 262° |
| 2026-05-05 16:10 | 39.93990 | -74.89457 | 2095 ft | 248 kts | 259° |
| 2026-05-05 16:10 | 39.93665 | -74.91662 | 2106 ft | 248 kts | 256° |
| 2026-05-05 16:10 | 39.93255 | -74.93820 | 2080 ft | 249 kts | 254° |
| 2026-05-05 16:11 | 39.92812 | -74.96000 | 2086 ft | 249 kts | 255° |
| 2026-05-05 16:11 | 39.91505 | -75.02443 | 2085 ft | 240 kts | 254° |
| 2026-05-05 16:12 | 39.91090 | -75.04510 | 2067 ft | 229 kts | 254° |
| 2026-05-05 16:12 | 39.90341 | -75.08244 | 2085 ft | 196 kts | 252° |
| 2026-05-05 16:13 | 39.89405 | -75.12886 | 1485 ft | 154 kts | 251° |
| 2026-05-05 16:13 | 39.89144 | -75.14193 | 1242 ft | 142 kts | 251° |
| 2026-05-05 16:13 | 39.88894 | -75.15434 | 1056 ft | 142 kts | 251° |
| 2026-05-05 16:14 | 39.88405 | -75.17875 | 736 ft | 145 kts | 251° |
| 2026-05-05 16:14 | 39.87911 | -75.20366 | 357 ft | 139 kts | 253° |
| 2026-05-05 16:15 | 39.87432 | -75.22758 | 29 ft | 129 kts | 251° |
| 2026-05-05 16:15 | 39.87175 | -75.24063 | 24 ft | 22 kts | 277° |
| 2026-05-05 16:16 | 39.87249 | -75.24159 | 28 ft | 3 kts | 331° |
| 2026-05-05 16:16 | 39.87346 | -75.24100 | 28 ft | 21 kts | 74° |
| 2026-05-05 16:17 | 39.87442 | -75.23716 | 26 ft | 22 kts | 50° |
| 2026-05-05 16:17 | 39.87540 | -75.23610 | 24 ft | 9 kts | 19° |
| 2026-05-05 16:18 | 39.87589 | -75.23628 | 24 ft | 2 kts | 329° |
| 2026-05-05 16:18 | 39.87632 | -75.23640 | 25 ft | 8 kts | 0° |
| 2026-05-05 16:18 | 39.87674 | -75.23637 | 24 ft | 0 kts | 4° |